createdAt,value
2019-05-05T00:01:45.092Z,99.90
2019-05-05T00:04:30.471Z,99.90
2019-05-05T00:06:58.894Z,99.90
2019-05-05T00:09:27.308Z,99.90
2019-05-05T00:12:14.707Z,99.90
2019-05-05T00:15:01.197Z,99.90
2019-05-05T00:17:31.268Z,99.90
2019-05-05T00:19:59.674Z,99.90
2019-05-05T00:22:28.108Z,99.90
2019-05-05T00:24:56.513Z,99.90
2019-05-05T00:27:25.497Z,99.90
2019-05-05T00:29:54.695Z,99.90
2019-05-05T00:32:24.531Z,99.90
2019-05-05T00:34:54.996Z,99.90
2019-05-05T00:37:25.488Z,99.90
2019-05-05T00:39:54.335Z,99.90
2019-05-05T00:42:24.730Z,99.90
2019-05-05T00:44:54.911Z,99.90
2019-05-05T00:47:41.521Z,99.90
2019-05-05T00:50:12.027Z,99.90
2019-05-05T00:52:40.440Z,99.90
2019-05-05T00:55:09.079Z,99.90
2019-05-05T00:57:37.491Z,99.90
2019-05-05T01:00:19.671Z,99.90
2019-05-05T01:02:49.743Z,99.90
2019-05-05T01:05:19.939Z,99.90
2019-05-05T01:07:48.368Z,99.90
2019-05-05T01:10:16.868Z,99.90
2019-05-05T01:12:45.281Z,99.90
2019-05-05T01:15:15.019Z,99.90
2019-05-05T01:17:45.087Z,99.90
2019-05-05T01:20:14.731Z,99.90
2019-05-05T01:22:44.823Z,99.90
2019-05-05T01:25:14.833Z,99.90
2019-05-05T01:27:45.274Z,99.90
2019-05-05T01:30:16.350Z,99.90
2019-05-05T01:32:49.205Z,99.90
2019-05-05T01:35:17.615Z,99.90
2019-05-05T01:37:56.833Z,99.90
2019-05-05T01:40:29.780Z,99.90
2019-05-05T01:42:58.181Z,99.90
2019-05-05T01:45:26.576Z,99.90
2019-05-05T01:47:55.030Z,99.90
2019-05-05T01:50:24.857Z,99.90
2019-05-05T01:52:55.439Z,99.90
2019-05-05T01:55:25.237Z,99.90
2019-05-05T01:57:54.453Z,99.90
2019-05-05T02:00:25.215Z,99.90
2019-05-05T02:02:55.235Z,99.90
2019-05-05T02:05:24.189Z,99.90
2019-05-05T02:07:52.738Z,99.90
2019-05-05T02:10:22.105Z,99.90
2019-05-05T02:12:50.537Z,99.90
2019-05-05T02:15:19.102Z,99.90
2019-05-05T02:17:47.495Z,99.90
2019-05-05T02:20:45.211Z,99.90
2019-05-05T02:23:15.368Z,99.90
2019-05-05T02:25:44.745Z,99.90
2019-05-05T02:28:14.954Z,99.90
2019-05-05T02:30:55.011Z,99.90
2019-05-05T02:33:26.166Z,99.90
2019-05-05T02:35:55.652Z,99.90
2019-05-05T02:38:26.132Z,99.90
2019-05-05T02:40:54.990Z,99.90
2019-05-05T02:43:24.996Z,99.90
2019-05-05T02:46:01.059Z,99.90
2019-05-05T02:48:30.205Z,99.90
2019-05-05T02:51:02.104Z,99.90
2019-05-05T02:53:35.747Z,99.90
2019-05-05T02:56:06.226Z,99.90
2019-05-05T02:58:37.946Z,99.90
2019-05-05T03:01:17.988Z,99.90
2019-05-05T03:03:47.454Z,99.90
2019-05-05T03:06:15.845Z,99.90
2019-05-05T03:08:44.941Z,99.90
2019-05-05T03:11:15.585Z,99.90
2019-05-05T03:13:45.963Z,99.90
2019-05-05T03:16:17.102Z,99.90
2019-05-05T03:18:46.160Z,99.90
2019-05-05T03:21:15.316Z,99.90
2019-05-05T03:23:44.127Z,99.90
2019-05-05T03:26:14.173Z,99.90
2019-05-05T03:28:54.463Z,99.90
2019-05-05T03:31:26.338Z,99.90
2019-05-05T03:33:55.052Z,99.90
2019-05-05T03:36:24.493Z,99.90
2019-05-05T03:38:55.060Z,99.90
2019-05-05T03:41:26.538Z,99.90
2019-05-05T03:44:00.906Z,99.90
2019-05-05T03:46:30.770Z,99.90
2019-05-05T03:48:59.455Z,99.90
2019-05-05T03:51:28.791Z,99.90
2019-05-05T03:53:57.582Z,99.90
2019-05-05T03:56:26.932Z,99.90
2019-05-05T03:58:58.305Z,99.90
2019-05-05T04:01:35.831Z,99.90
2019-05-05T04:04:24.491Z,99.90
2019-05-05T04:07:01.064Z,99.90
2019-05-05T04:09:29.551Z,99.90
2019-05-05T04:11:57.975Z,99.90
2019-05-05T04:14:26.396Z,99.90
2019-05-05T04:16:56.468Z,99.90
2019-05-05T04:19:29.301Z,99.90
2019-05-05T04:21:57.725Z,99.90
2019-05-05T04:24:26.143Z,99.90
2019-05-05T04:26:54.687Z,99.90
2019-05-05T04:29:24.435Z,99.90
2019-05-05T04:31:54.033Z,99.90
2019-05-05T04:34:24.103Z,99.90
2019-05-05T04:36:54.519Z,99.90
2019-05-05T04:39:23.680Z,99.90
2019-05-05T04:41:54.351Z,99.90
2019-05-05T04:44:23.678Z,99.90
2019-05-05T04:46:54.624Z,99.90
2019-05-05T04:49:24.899Z,99.90
2019-05-05T04:51:58.025Z,99.90
2019-05-05T04:54:31.034Z,99.90
2019-05-05T04:56:59.447Z,99.90
2019-05-05T04:59:27.860Z,99.90
2019-05-05T05:01:57.917Z,99.90
2019-05-05T05:04:39.956Z,99.90
2019-05-05T05:07:08.349Z,99.90
2019-05-05T05:09:36.768Z,99.90
2019-05-05T05:12:05.313Z,99.90
2019-05-05T05:14:33.890Z,99.90
2019-05-05T05:17:04.169Z,99.90
2019-05-05T05:19:33.512Z,99.90
2019-05-05T05:22:04.441Z,99.90
2019-05-05T05:24:34.142Z,99.90
2019-05-05T05:27:02.431Z,99.90
2019-05-05T05:29:30.854Z,99.90
2019-05-05T05:31:59.276Z,99.90
2019-05-05T05:34:27.712Z,99.90
2019-05-05T05:36:56.174Z,99.90
2019-05-05T05:39:26.222Z,99.90
2019-05-05T05:41:54.652Z,99.90
2019-05-05T05:44:36.703Z,99.90
2019-05-05T05:47:06.768Z,99.90
2019-05-05T05:49:45.609Z,99.90
2019-05-05T05:52:18.932Z,99.90
2019-05-05T05:54:44.323Z,99.90
2019-05-05T05:57:14.435Z,99.90
2019-05-05T05:59:44.458Z,99.90
2019-05-05T06:02:15.519Z,99.90
2019-05-05T06:04:44.578Z,99.90
2019-05-05T06:07:14.225Z,99.90
2019-05-05T06:09:43.945Z,99.90
2019-05-05T06:12:14.022Z,99.90
2019-05-05T06:14:44.513Z,99.90
2019-05-05T06:17:13.484Z,99.90
2019-05-05T06:19:44.435Z,99.90
2019-05-05T06:22:17.834Z,99.90
2019-05-05T06:24:43.986Z,99.90
2019-05-05T06:27:14.285Z,99.90
2019-05-05T06:29:43.790Z,99.90
2019-05-05T06:32:14.512Z,99.90
2019-05-05T06:34:44.293Z,99.90
2019-05-05T06:37:14.552Z,99.90
2019-05-05T06:39:44.025Z,99.90
2019-05-05T06:42:26.457Z,99.90
2019-05-05T06:44:59.602Z,99.90
2019-05-05T06:47:28.682Z,99.90
2019-05-05T06:49:57.116Z,99.90
2019-05-05T06:52:25.533Z,99.90
2019-05-05T06:54:54.346Z,99.90
2019-05-05T06:57:24.024Z,99.90
2019-05-05T06:59:54.346Z,99.90
2019-05-05T07:02:23.816Z,99.90
2019-05-05T07:04:54.513Z,99.90
2019-05-05T07:07:23.605Z,99.90
2019-05-05T07:09:54.062Z,99.90
2019-05-05T07:12:24.198Z,99.90
2019-05-05T07:14:53.813Z,99.90
2019-05-05T07:17:23.961Z,99.90
2019-05-05T07:19:54.350Z,99.90
2019-05-05T07:22:24.432Z,99.90
2019-05-05T07:24:54.183Z,99.90
2019-05-05T07:27:24.288Z,99.90
2019-05-05T07:29:54.165Z,99.90
2019-05-05T07:32:24.508Z,99.90
2019-05-05T07:34:54.719Z,99.90
2019-05-05T07:37:23.860Z,99.90
2019-05-05T07:39:54.039Z,99.90
2019-05-05T07:42:24.297Z,99.90
2019-05-05T07:44:54.613Z,99.90
2019-05-05T07:47:23.824Z,99.90
2019-05-05T07:49:53.520Z,99.90
2019-05-05T07:52:23.743Z,99.90
2019-05-05T07:54:52.401Z,99.90
2019-05-05T07:57:20.873Z,99.90
2019-05-05T07:59:49.284Z,99.90
2019-05-05T08:02:17.705Z,99.90
2019-05-05T08:04:46.235Z,99.90
2019-05-05T08:07:14.827Z,99.90
2019-05-05T08:09:44.426Z,99.90
2019-05-05T08:12:13.718Z,99.90
2019-05-05T08:14:44.256Z,99.90
2019-05-05T08:17:16.825Z,99.90
2019-05-05T08:19:46.889Z,99.90
2019-05-05T08:22:15.372Z,99.90
2019-05-05T08:25:04.094Z,99.90
2019-05-05T08:27:34.511Z,99.90
2019-05-05T08:30:08.043Z,99.90
2019-05-05T08:32:38.131Z,99.90
2019-05-05T08:35:07.770Z,99.90
2019-05-05T08:37:36.267Z,99.90
2019-05-05T08:40:06.601Z,99.90
2019-05-05T08:42:35.082Z,99.90
2019-05-05T08:45:04.581Z,99.90
2019-05-05T08:47:34.558Z,99.90
2019-05-05T08:50:04.543Z,99.90
2019-05-05T08:52:34.272Z,99.90
2019-05-05T08:55:04.701Z,99.90
2019-05-05T08:57:34.090Z,99.90
2019-05-05T09:00:24.305Z,99.90
2019-05-05T09:02:54.212Z,99.90
2019-05-05T09:05:23.835Z,99.90
2019-05-05T09:07:54.608Z,99.90
2019-05-05T09:10:23.665Z,99.90
2019-05-05T09:12:54.143Z,99.90
2019-05-05T09:15:24.262Z,99.90
2019-05-05T09:17:54.443Z,99.90
2019-05-05T09:20:24.173Z,99.90
2019-05-05T09:22:53.555Z,99.90
2019-05-05T09:25:40.162Z,99.90
2019-05-05T09:28:23.841Z,99.90
2019-05-05T09:30:53.637Z,99.90
2019-05-05T09:33:24.741Z,99.90
2019-05-05T09:35:54.174Z,99.90
2019-05-05T09:38:24.017Z,99.90
2019-05-05T09:40:54.285Z,99.90
2019-05-05T09:43:23.999Z,99.90
2019-05-05T09:45:54.480Z,99.90
2019-05-05T09:48:24.310Z,99.90
2019-05-05T09:50:54.106Z,99.90
2019-05-05T09:53:23.805Z,99.90
2019-05-05T09:55:54.719Z,99.90
2019-05-05T09:58:24.205Z,99.90
2019-05-05T10:00:54.593Z,99.90
2019-05-05T10:03:22.969Z,99.90
2019-05-05T10:05:51.442Z,99.90
2019-05-05T10:08:19.865Z,99.90
2019-05-05T10:10:48.274Z,99.90
2019-05-05T10:13:16.665Z,99.90
2019-05-05T10:15:45.174Z,99.90
2019-05-05T10:18:14.235Z,99.90
2019-05-05T10:20:42.881Z,99.90
2019-05-05T10:23:11.401Z,99.90
2019-05-05T10:25:41.470Z,99.90
2019-05-05T10:28:09.878Z,99.90
2019-05-05T10:30:38.321Z,99.90
2019-05-05T10:33:06.799Z,99.90
2019-05-05T10:35:35.211Z,99.90
2019-05-05T10:38:03.894Z,99.90
2019-05-05T10:40:35.642Z,99.90
2019-05-05T10:43:04.703Z,99.90
2019-05-05T10:45:33.570Z,99.90
2019-05-05T10:48:03.891Z,99.90
2019-05-05T10:50:34.063Z,99.90
2019-05-05T10:53:04.612Z,99.90
2019-05-05T10:55:34.644Z,99.90
2019-05-05T10:58:02.988Z,99.90
2019-05-05T11:00:54.363Z,99.90
2019-05-05T11:03:23.704Z,99.90
2019-05-05T11:05:53.852Z,99.90
2019-05-05T11:08:24.134Z,99.90
2019-05-05T11:10:52.746Z,99.90
2019-05-05T11:13:21.221Z,99.90
2019-05-05T11:15:49.643Z,99.90
2019-05-05T11:18:18.154Z,99.90
2019-05-05T11:20:46.647Z,99.90
2019-05-05T11:23:15.409Z,99.90
2019-05-05T11:25:44.355Z,99.90
2019-05-05T11:28:13.292Z,99.90
2019-05-05T11:30:45.402Z,99.90
2019-05-05T11:33:31.845Z,99.90
2019-05-05T11:36:01.957Z,99.90
2019-05-05T11:38:30.385Z,99.90
2019-05-05T11:40:58.813Z,99.90
2019-05-05T11:43:27.200Z,99.90
2019-05-05T11:45:55.622Z,99.90
2019-05-05T11:48:24.474Z,99.90
2019-05-05T11:50:54.074Z,99.90
2019-05-05T11:53:24.892Z,99.90
2019-05-05T11:55:54.945Z,99.90
2019-05-05T11:58:24.862Z,99.90
2019-05-05T12:00:54.498Z,99.90
2019-05-05T12:03:23.631Z,99.90
2019-05-05T12:05:52.129Z,99.90
2019-05-05T12:08:20.539Z,99.90
2019-05-05T12:10:50.695Z,99.90
2019-05-05T12:13:19.118Z,99.90
2019-05-05T12:15:49.256Z,99.90
2019-05-05T12:18:17.686Z,99.90
2019-05-05T12:20:46.113Z,99.90
2019-05-05T12:23:14.567Z,99.90
2019-05-05T12:25:50.659Z,99.90
2019-05-05T12:28:38.675Z,99.90
2019-05-05T12:31:17.639Z,99.90
2019-05-05T12:33:46.073Z,99.90
2019-05-05T12:36:15.190Z,99.90
2019-05-05T12:38:44.051Z,99.90
2019-05-05T12:41:14.598Z,99.90
2019-05-05T12:43:44.140Z,99.90
2019-05-05T12:46:24.311Z,99.90
2019-05-05T12:48:54.524Z,99.90
2019-05-05T12:51:23.640Z,99.90
2019-05-05T12:53:53.961Z,99.90
2019-05-05T12:56:23.853Z,99.90
2019-05-05T12:58:54.358Z,99.90
2019-05-05T13:01:24.651Z,99.90
2019-05-05T13:03:54.254Z,99.90
2019-05-05T13:06:24.009Z,99.90
2019-05-05T13:08:52.840Z,99.90
2019-05-05T13:11:21.313Z,99.90
2019-05-05T13:13:49.756Z,99.90
2019-05-05T13:16:18.209Z,99.90
2019-05-05T13:18:46.715Z,99.90
2019-05-05T13:21:19.395Z,99.90
2019-05-05T13:23:58.694Z,99.90
2019-05-05T13:26:34.766Z,99.90
2019-05-05T13:29:03.285Z,99.90
2019-05-05T13:31:33.614Z,99.90
2019-05-05T13:34:04.295Z,99.90
2019-05-05T13:36:33.419Z,99.90
2019-05-05T13:39:02.022Z,99.90
2019-05-05T13:41:30.483Z,99.60
2019-05-05T13:43:59.810Z,99.90
2019-05-05T13:46:29.855Z,99.90
2019-05-05T13:49:00.002Z,96.30
2019-05-05T13:51:28.429Z,95.60
2019-05-05T13:53:56.861Z,93.10
2019-05-05T13:56:25.276Z,94.10
2019-05-05T13:58:53.758Z,94.40
2019-05-05T14:01:23.769Z,94.30
2019-05-05T14:03:54.193Z,95.80
2019-05-05T14:06:24.279Z,99.10
2019-05-05T14:08:54.014Z,98.90
2019-05-05T14:11:24.553Z,99.90
2019-05-05T14:13:52.980Z,99.90
2019-05-05T14:16:21.420Z,99.90
2019-05-05T14:18:49.851Z,99.90
2019-05-05T14:21:18.337Z,99.90
2019-05-05T14:23:54.532Z,99.90
2019-05-05T14:26:27.916Z,99.90
2019-05-05T14:28:54.143Z,99.90
2019-05-05T14:31:24.509Z,99.90
2019-05-05T14:33:57.021Z,99.90
2019-05-05T14:36:29.793Z,99.90
2019-05-05T14:38:59.096Z,99.90
2019-05-05T14:41:27.525Z,99.90
2019-05-05T14:43:56.571Z,99.90
2019-05-05T14:46:25.213Z,99.90
2019-05-05T14:48:53.663Z,99.90
2019-05-05T14:51:22.154Z,99.90
2019-05-05T14:53:50.574Z,99.90
2019-05-05T14:56:19.114Z,99.90
2019-05-05T14:58:47.549Z,99.90
2019-05-05T15:01:19.159Z,99.90
2019-05-05T15:03:47.586Z,99.90
2019-05-05T15:06:26.487Z,99.90
2019-05-05T15:08:56.566Z,99.90
2019-05-05T15:11:38.729Z,99.90
2019-05-05T15:14:07.133Z,99.90
2019-05-05T15:16:38.167Z,99.70
2019-05-05T15:19:06.608Z,99.10
2019-05-05T15:21:38.188Z,99.90
2019-05-05T15:24:07.647Z,90.70
2019-05-05T15:26:48.864Z,99.90
2019-05-05T15:29:06.406Z,99.90
2019-05-05T15:31:34.850Z,98.10
2019-05-05T15:34:20.190Z,90.50
2019-05-05T15:36:48.614Z,97.20
2019-05-05T15:39:17.051Z,90.70
2019-05-05T15:41:45.470Z,98.60
2019-05-05T15:44:14.079Z,93.90
2019-05-05T15:46:44.219Z,91.80
2019-05-05T15:49:13.318Z,91.70
2019-05-05T15:51:41.983Z,98.90
2019-05-05T15:54:10.408Z,99.90
2019-05-05T15:56:38.844Z,99.90
2019-05-05T15:59:07.384Z,92.20
2019-05-05T16:01:35.825Z,86.00
2019-05-05T16:04:04.224Z,86.70
2019-05-05T16:06:34.336Z,92.10
2019-05-05T16:09:51.156Z,84.60
2019-05-05T16:12:31.193Z,94.40
2019-05-05T16:14:51.437Z,90.40
2019-05-05T16:17:24.278Z,91.30
2019-05-05T16:20:00.586Z,97.20
2019-05-05T16:22:45.779Z,91.60
2019-05-05T16:25:15.509Z,92.60
2019-05-05T16:27:44.679Z,99.90
2019-05-05T16:30:15.238Z,96.70
2019-05-05T16:32:43.666Z,93.20
2019-05-05T16:38:40.873Z,93.80
2019-05-05T16:41:09.414Z,96.60
2019-05-05T16:43:37.828Z,96.20
2019-05-05T16:46:07.250Z,99.20
2019-05-05T16:48:35.671Z,99.90
2019-05-05T16:51:05.710Z,98.10
2019-05-05T16:53:38.211Z,99.20
2019-05-05T16:56:10.475Z,99.30
2019-05-05T16:58:39.237Z,97.70
2019-05-05T17:01:09.368Z,98.30
2019-05-05T17:03:38.771Z,99.10
2019-05-05T17:06:07.251Z,97.90
2019-05-05T17:08:35.697Z,98.00
2019-05-05T17:11:04.254Z,98.50
2019-05-05T17:13:49.326Z,99.90
2019-05-05T17:16:25.351Z,99.90
2019-05-05T17:18:58.401Z,99.90
2019-05-05T17:21:31.182Z,99.90
2019-05-05T17:23:59.653Z,99.90
2019-05-05T17:26:28.213Z,99.90
2019-05-05T17:28:56.651Z,99.90
2019-05-05T17:31:25.070Z,99.90
2019-05-05T17:33:53.680Z,99.90
2019-05-05T17:36:24.168Z,99.90
2019-05-05T17:38:54.360Z,99.90
2019-05-05T17:41:24.564Z,99.90
2019-05-05T17:43:54.637Z,99.90
2019-05-05T17:46:30.804Z,99.90
2019-05-05T17:49:17.231Z,99.90
2019-05-05T17:51:59.267Z,99.90
2019-05-05T17:54:35.182Z,99.90
2019-05-05T17:57:03.782Z,99.90
2019-05-05T17:59:34.804Z,99.90
2019-05-05T18:02:04.887Z,99.90
2019-05-05T18:04:40.319Z,99.90
2019-05-05T18:07:10.626Z,99.90
2019-05-05T18:09:58.758Z,99.90
2019-05-05T18:12:37.650Z,99.90
2019-05-05T18:15:08.347Z,99.90
2019-05-05T18:17:36.769Z,99.90
2019-05-05T18:20:06.528Z,99.90
2019-05-05T18:22:34.954Z,99.90
2019-05-05T18:25:04.806Z,99.90
2019-05-05T18:27:34.406Z,99.90
2019-05-05T18:30:06.049Z,99.90
2019-05-05T18:32:34.481Z,99.90
2019-05-05T18:35:06.404Z,99.90
2019-05-05T18:37:33.969Z,99.90
2019-05-05T18:40:45.675Z,99.90
2019-05-05T18:43:15.784Z,99.90
2019-05-05T18:45:44.302Z,99.90
2019-05-05T18:48:14.018Z,99.90
2019-05-05T18:50:42.682Z,99.90
2019-05-05T18:53:11.106Z,99.90
2019-05-05T18:55:39.524Z,99.90
2019-05-05T18:58:08.211Z,99.90
2019-05-05T19:00:54.580Z,99.90
2019-05-05T19:03:24.965Z,99.90
2019-05-05T19:08:53.686Z,99.90
2019-05-05T19:11:12.365Z,99.90
2019-05-05T19:13:40.791Z,99.90
2019-05-05T19:16:09.359Z,99.90
2019-05-05T19:18:37.761Z,99.90
2019-05-05T19:21:19.638Z,99.90
2019-05-05T19:23:48.054Z,99.90
2019-05-05T19:26:16.559Z,99.90
2019-05-05T19:28:49.927Z,99.90
2019-05-05T19:31:15.116Z,99.90
2019-05-05T19:33:43.516Z,99.90
2019-05-05T19:36:11.952Z,99.90
2019-05-05T19:38:44.218Z,99.90
2019-05-05T19:41:14.388Z,99.90
2019-05-05T19:43:54.383Z,99.90
2019-05-05T19:46:25.641Z,99.90
2019-05-05T19:49:14.723Z,99.90
2019-05-05T19:51:44.603Z,99.90
2019-05-05T19:54:14.366Z,99.90
2019-05-05T19:56:44.781Z,99.90
2019-05-05T19:59:13.838Z,99.90
2019-05-05T20:01:44.693Z,99.90
2019-05-05T20:04:14.491Z,99.90
2019-05-05T20:06:44.257Z,99.90
2019-05-05T20:09:14.158Z,99.90
2019-05-05T20:11:43.900Z,99.90
2019-05-05T20:14:15.143Z,99.90
2019-05-05T20:17:00.759Z,99.90
2019-05-05T20:19:31.270Z,99.90
2019-05-05T20:21:59.763Z,99.90
2019-05-05T20:24:28.251Z,99.90
2019-05-05T20:26:56.666Z,99.90
2019-05-05T20:29:25.100Z,99.90
2019-05-05T20:31:54.813Z,99.90
2019-05-05T20:34:27.960Z,99.90
2019-05-05T20:37:09.945Z,99.90
2019-05-05T20:39:39.745Z,99.90
2019-05-05T20:42:09.993Z,99.90
2019-05-05T20:44:43.577Z,99.90
2019-05-05T20:47:11.364Z,99.90
2019-05-05T20:49:39.794Z,99.90
2019-05-05T20:52:08.202Z,99.90
2019-05-05T20:54:37.947Z,99.90
2019-05-05T20:57:06.349Z,99.90
2019-05-05T20:59:34.764Z,99.90
2019-05-05T21:02:04.461Z,99.90
2019-05-05T21:04:34.466Z,99.90
2019-05-05T21:07:04.475Z,99.90
2019-05-05T21:09:34.451Z,99.90
2019-05-05T21:12:04.690Z,99.90
2019-05-05T21:14:37.114Z,99.90
2019-05-05T21:17:04.158Z,99.90
2019-05-05T21:19:34.598Z,99.90
2019-05-05T21:22:07.738Z,99.90
2019-05-05T21:24:36.140Z,99.90
2019-05-05T21:27:04.815Z,99.90
2019-05-05T21:29:41.400Z,99.90
2019-05-05T21:32:04.535Z,99.90
2019-05-05T21:34:34.278Z,99.90
2019-05-05T21:37:04.393Z,99.90
2019-05-05T21:39:34.958Z,99.90
2019-05-05T21:42:08.325Z,99.90
2019-05-05T21:44:44.408Z,99.90
2019-05-05T21:47:14.186Z,99.90
2019-05-05T21:49:42.887Z,99.90
2019-05-05T21:52:16.077Z,99.90
2019-05-05T21:54:46.162Z,99.90
2019-05-05T21:57:30.966Z,99.90
2019-05-05T21:59:59.390Z,99.90
2019-05-05T22:02:31.459Z,99.90
2019-05-05T22:04:59.878Z,99.90
2019-05-05T22:07:28.305Z,99.90
2019-05-05T22:09:56.726Z,99.90
2019-05-05T22:12:25.168Z,99.90
2019-05-05T22:14:55.106Z,99.90
2019-05-05T22:17:23.854Z,99.90
2019-05-05T22:20:06.112Z,99.90
2019-05-05T22:22:36.490Z,99.90
2019-05-05T22:25:06.706Z,99.90
2019-05-05T22:27:35.133Z,99.90
2019-05-05T22:30:09.848Z,99.90
2019-05-05T22:32:35.051Z,99.90
2019-05-05T22:35:07.585Z,99.90
2019-05-05T22:37:35.998Z,99.90
2019-05-05T22:40:04.974Z,99.90
2019-05-05T22:42:34.228Z,99.90
2019-05-05T22:45:04.663Z,99.90
2019-05-05T22:47:34.562Z,99.90
2019-05-05T22:50:04.407Z,99.90
2019-05-05T22:52:34.392Z,99.90
2019-05-05T22:55:04.570Z,99.90
2019-05-05T22:57:34.505Z,99.90
2019-05-05T23:00:05.112Z,99.90
2019-05-05T23:02:35.182Z,99.90
2019-05-05T23:05:06.426Z,99.90
2019-05-05T23:07:35.107Z,99.90
2019-05-05T23:10:05.068Z,99.90
2019-05-05T23:12:35.076Z,99.90
2019-05-05T23:15:06.470Z,99.90
2019-05-05T23:17:51.970Z,99.90
2019-05-05T23:20:41.981Z,99.90
2019-05-05T23:23:14.837Z,99.90
2019-05-05T23:25:45.761Z,99.90
2019-05-05T23:28:14.736Z,99.90
2019-05-05T23:30:44.714Z,99.90
2019-05-05T23:33:14.311Z,99.90
2019-05-05T23:35:43.695Z,99.90
2019-05-05T23:38:14.232Z,99.90
2019-05-05T23:40:42.382Z,99.90
2019-05-05T23:43:10.806Z,99.90
2019-05-05T23:45:39.212Z,99.90
2019-05-05T23:48:08.678Z,99.90
2019-05-05T23:50:37.111Z,99.90
2019-05-05T23:53:05.593Z,99.90
2019-05-05T23:55:34.424Z,99.90
2019-05-05T23:58:03.750Z,99.90
